sensor_id;sensor_type;location;lat;lon;timestamp;P1;durP1;ratioP1;P2;durP2;ratioP2
38007;SDS011;75335;50.812;12.376;2024-01-30T12:16:48;14.05;;;7.80;;
38007;SDS011;75335;50.812;12.376;2024-01-30T12:19:41;17.67;;;9.23;;
38007;SDS011;75335;50.812;12.376;2024-01-30T12:22:12;19.60;;;8.50;;
38007;SDS011;75335;50.812;12.376;2024-01-30T12:24:40;22.30;;;8.90;;
38007;SDS011;75335;50.812;12.376;2024-01-30T12:27:09;18.83;;;8.77;;
38007;SDS011;75335;50.812;12.376;2024-01-30T12:29:41;13.30;;;7.75;;
38007;SDS011;75335;50.812;12.376;2024-01-30T12:32:14;16.75;;;8.73;;
38007;SDS011;75335;50.812;12.376;2024-01-30T12:34:42;16.35;;;8.13;;
38007;SDS011;75335;50.812;12.376;2024-01-30T12:37:12;19.90;;;8.70;;
38007;SDS011;75335;50.812;12.376;2024-01-30T12:50:24;17.80;;;8.55;;
38007;SDS011;75335;50.812;12.376;2024-01-30T13:19:17;15.85;;;9.35;;
38007;SDS011;75335;50.812;12.376;2024-01-30T13:22:04;19.65;;;8.73;;
38007;SDS011;75335;50.812;12.376;2024-01-30T13:24:46;22.23;;;10.00;;
38007;SDS011;75335;50.812;12.376;2024-01-30T13:27:41;25.60;;;9.60;;
38007;SDS011;75335;50.812;12.376;2024-01-30T13:31:04;20.38;;;8.93;;
38007;SDS011;75335;50.812;12.376;2024-01-30T13:37:37;17.48;;;9.13;;
38007;SDS011;75335;50.812;12.376;2024-01-30T13:40:51;15.35;;;8.57;;
38007;SDS011;75335;50.812;12.376;2024-01-30T13:43:48;14.13;;;8.50;;
38007;SDS011;75335;50.812;12.376;2024-01-30T13:46:15;20.67;;;8.80;;
38007;SDS011;75335;50.812;12.376;2024-01-30T13:48:43;20.60;;;9.02;;
38007;SDS011;75335;50.812;12.376;2024-01-30T13:51:16;16.42;;;7.63;;
38007;SDS011;75335;50.812;12.376;2024-01-30T13:53:44;18.48;;;8.65;;
38007;SDS011;75335;50.812;12.376;2024-01-30T13:56:16;16.10;;;8.27;;
38007;SDS011;75335;50.812;12.376;2024-01-30T13:58:48;18.75;;;8.52;;
38007;SDS011;75335;50.812;12.376;2024-01-30T14:01:18;18.05;;;9.38;;
38007;SDS011;75335;50.812;12.376;2024-01-30T14:03:48;16.52;;;8.38;;
38007;SDS011;75335;50.812;12.376;2024-01-30T14:06:21;15.27;;;7.95;;
38007;SDS011;75335;50.812;12.376;2024-01-30T14:08:50;17.15;;;8.77;;
38007;SDS011;75335;50.812;12.376;2024-01-30T14:11:21;22.45;;;10.02;;
38007;SDS011;75335;50.812;12.376;2024-01-30T14:13:51;17.42;;;9.05;;
38007;SDS011;75335;50.812;12.376;2024-01-30T14:16:23;18.70;;;9.25;;
38007;SDS011;75335;50.812;12.376;2024-01-30T14:19:01;18.92;;;9.05;;
38007;SDS011;75335;50.812;12.376;2024-01-30T14:21:34;19.90;;;9.13;;
38007;SDS011;75335;50.812;12.376;2024-01-30T14:24:14;14.18;;;8.73;;
38007;SDS011;75335;50.812;12.376;2024-01-30T14:26:44;17.70;;;8.90;;
38007;SDS011;75335;50.812;12.376;2024-01-30T14:29:14;19.75;;;10.30;;
38007;SDS011;75335;50.812;12.376;2024-01-30T14:31:45;18.42;;;9.38;;
38007;SDS011;75335;50.812;12.376;2024-01-30T14:34:15;20.92;;;10.80;;
38007;SDS011;75335;50.812;12.376;2024-01-30T14:39:20;14.50;;;8.02;;
38007;SDS011;75335;50.812;12.376;2024-01-30T14:41:49;18.10;;;9.35;;
38007;SDS011;75335;50.812;12.376;2024-01-30T14:44:18;28.33;;;10.48;;
38007;SDS011;75335;50.812;12.376;2024-01-30T14:46:49;17.30;;;9.32;;
38007;SDS011;75335;50.812;12.376;2024-01-30T14:49:19;19.60;;;9.93;;
38007;SDS011;75335;50.812;12.376;2024-01-30T14:51:50;15.35;;;8.95;;
38007;SDS011;75335;50.812;12.376;2024-01-30T14:54:21;18.90;;;10.35;;
38007;SDS011;75335;50.812;12.376;2024-01-30T14:56:54;17.02;;;10.10;;
38007;SDS011;75335;50.812;12.376;2024-01-30T14:59:25;23.17;;;10.07;;
38007;SDS011;75335;50.812;12.376;2024-01-30T15:01:54;17.92;;;10.35;;
38007;SDS011;75335;50.812;12.376;2024-01-30T15:04:26;18.38;;;9.82;;
38007;SDS011;75335;50.812;12.376;2024-01-30T15:06:59;25.38;;;9.80;;
38007;SDS011;75335;50.812;12.376;2024-01-30T15:09:28;21.27;;;10.30;;
38007;SDS011;75335;50.812;12.376;2024-01-30T15:11:59;18.02;;;9.23;;
38007;SDS011;75335;50.812;12.376;2024-01-30T15:14:32;24.67;;;12.75;;
38007;SDS011;75335;50.812;12.376;2024-01-30T15:17:04;21.55;;;10.52;;
38007;SDS011;75335;50.812;12.376;2024-01-30T15:19:33;23.67;;;11.82;;
38007;SDS011;75335;50.812;12.376;2024-01-30T15:22:05;32.08;;;13.10;;
38007;SDS011;75335;50.812;12.376;2024-01-30T15:24:38;24.65;;;11.40;;
38007;SDS011;75335;50.812;12.376;2024-01-30T15:27:09;23.17;;;11.98;;
38007;SDS011;75335;50.812;12.376;2024-01-30T15:29:47;19.75;;;11.45;;
38007;SDS011;75335;50.812;12.376;2024-01-30T15:32:22;18.58;;;10.70;;
38007;SDS011;75335;50.812;12.376;2024-01-30T15:34:55;20.73;;;10.27;;
38007;SDS011;75335;50.812;12.376;2024-01-30T15:37:29;16.55;;;9.48;;
38007;SDS011;75335;50.812;12.376;2024-01-30T15:40:01;17.40;;;8.68;;
38007;SDS011;75335;50.812;12.376;2024-01-30T15:42:31;16.52;;;9.85;;
38007;SDS011;75335;50.812;12.376;2024-01-30T15:45:00;23.95;;;10.68;;
38007;SDS011;75335;50.812;12.376;2024-01-30T15:47:28;17.13;;;9.20;;
38007;SDS011;75335;50.812;12.376;2024-01-30T15:49:56;15.32;;;9.20;;
38007;SDS011;75335;50.812;12.376;2024-01-30T15:52:24;21.75;;;9.77;;
38007;SDS011;75335;50.812;12.376;2024-01-30T15:54:56;15.45;;;8.55;;
38007;SDS011;75335;50.812;12.376;2024-01-30T15:57:29;16.40;;;9.10;;
38007;SDS011;75335;50.812;12.376;2024-01-30T15:59:57;19.27;;;8.55;;
38007;SDS011;75335;50.812;12.376;2024-01-30T16:02:26;15.90;;;8.45;;
38007;SDS011;75335;50.812;12.376;2024-01-30T16:04:54;21.00;;;9.52;;
38007;SDS011;75335;50.812;12.376;2024-01-30T16:07:22;24.23;;;10.18;;
38007;SDS011;75335;50.812;12.376;2024-01-30T16:09:50;17.00;;;9.10;;
38007;SDS011;75335;50.812;12.376;2024-01-30T16:12:20;18.90;;;9.30;;
38007;SDS011;75335;50.812;12.376;2024-01-30T16:14:48;19.25;;;8.75;;
38007;SDS011;75335;50.812;12.376;2024-01-30T16:17:17;16.13;;;8.23;;
38007;SDS011;75335;50.812;12.376;2024-01-30T16:19:45;15.65;;;8.02;;
38007;SDS011;75335;50.812;12.376;2024-01-30T16:22:15;17.20;;;8.38;;
38007;SDS011;75335;50.812;12.376;2024-01-30T16:24:43;18.42;;;8.70;;
38007;SDS011;75335;50.812;12.376;2024-01-30T16:27:12;16.67;;;8.20;;
38007;SDS011;75335;50.812;12.376;2024-01-30T16:29:41;17.40;;;8.43;;
38007;SDS011;75335;50.812;12.376;2024-01-30T16:32:09;17.33;;;7.68;;
38007;SDS011;75335;50.812;12.376;2024-01-30T16:34:39;16.83;;;8.80;;
38007;SDS011;75335;50.812;12.376;2024-01-30T16:37:07;22.83;;;8.70;;
38007;SDS011;75335;50.812;12.376;2024-01-30T16:39:35;16.75;;;8.05;;
38007;SDS011;75335;50.812;12.376;2024-01-30T16:42:04;17.08;;;9.30;;
38007;SDS011;75335;50.812;12.376;2024-01-30T16:45:02;19.20;;;9.48;;
38007;SDS011;75335;50.812;12.376;2024-01-30T16:47:31;19.75;;;9.65;;
38007;SDS011;75335;50.812;12.376;2024-01-30T16:49:59;17.45;;;7.68;;
38007;SDS011;75335;50.812;12.376;2024-01-30T16:52:28;17.58;;;8.50;;
38007;SDS011;75335;50.812;12.376;2024-01-30T16:54:56;14.23;;;8.10;;
38007;SDS011;75335;50.812;12.376;2024-01-30T16:57:24;14.48;;;8.05;;
38007;SDS011;75335;50.812;12.376;2024-01-30T16:59:52;19.15;;;8.15;;
38007;SDS011;75335;50.812;12.376;2024-01-30T17:02:23;17.55;;;8.73;;
38007;SDS011;75335;50.812;12.376;2024-01-30T17:04:51;14.60;;;8.20;;
38007;SDS011;75335;50.812;12.376;2024-01-30T17:07:22;17.70;;;8.52;;
38007;SDS011;75335;50.812;12.376;2024-01-30T17:09:50;19.77;;;8.27;;
38007;SDS011;75335;50.812;12.376;2024-01-30T17:12:19;18.52;;;8.60;;
38007;SDS011;75335;50.812;12.376;2024-01-30T17:14:47;14.05;;;8.15;;
38007;SDS011;75335;50.812;12.376;2024-01-30T17:17:15;14.45;;;8.18;;
38007;SDS011;75335;50.812;12.376;2024-01-30T17:19:46;16.88;;;8.88;;
38007;SDS011;75335;50.812;12.376;2024-01-30T17:22:14;15.65;;;8.48;;
38007;SDS011;75335;50.812;12.376;2024-01-30T17:24:43;15.93;;;9.25;;
38007;SDS011;75335;50.812;12.376;2024-01-30T17:27:12;17.70;;;8.98;;
38007;SDS011;75335;50.812;12.376;2024-01-30T17:29:41;21.15;;;9.60;;
38007;SDS011;75335;50.812;12.376;2024-01-30T17:32:09;18.45;;;9.68;;
38007;SDS011;75335;50.812;12.376;2024-01-30T17:34:36;21.35;;;8.80;;
38007;SDS011;75335;50.812;12.376;2024-01-30T17:37:06;18.40;;;9.82;;
38007;SDS011;75335;50.812;12.376;2024-01-30T17:39:34;17.50;;;9.25;;
38007;SDS011;75335;50.812;12.376;2024-01-30T17:42:02;18.60;;;8.82;;
38007;SDS011;75335;50.812;12.376;2024-01-30T17:44:31;20.58;;;8.43;;
38007;SDS011;75335;50.812;12.376;2024-01-30T17:47:05;16.63;;;9.20;;
38007;SDS011;75335;50.812;12.376;2024-01-30T17:49:33;20.38;;;9.50;;
38007;SDS011;75335;50.812;12.376;2024-01-30T17:52:01;16.38;;;9.27;;
38007;SDS011;75335;50.812;12.376;2024-01-30T17:54:31;24.00;;;10.68;;
38007;SDS011;75335;50.812;12.376;2024-01-30T17:57:00;20.17;;;9.82;;
38007;SDS011;75335;50.812;12.376;2024-01-30T17:59:28;18.45;;;9.43;;
38007;SDS011;75335;50.812;12.376;2024-01-30T18:01:56;23.15;;;10.40;;
38007;SDS011;75335;50.812;12.376;2024-01-30T18:04:24;18.55;;;9.32;;
38007;SDS011;75335;50.812;12.376;2024-01-30T18:06:52;16.70;;;8.57;;
38007;SDS011;75335;50.812;12.376;2024-01-30T18:09:21;16.65;;;8.23;;
38007;SDS011;75335;50.812;12.376;2024-01-30T18:11:53;14.05;;;8.07;;
38007;SDS011;75335;50.812;12.376;2024-01-30T18:14:21;25.38;;;9.70;;
38007;SDS011;75335;50.812;12.376;2024-01-30T18:16:50;18.33;;;8.95;;
38007;SDS011;75335;50.812;12.376;2024-01-30T18:19:17;16.27;;;8.95;;
38007;SDS011;75335;50.812;12.376;2024-01-30T18:21:46;17.77;;;9.63;;
38007;SDS011;75335;50.812;12.376;2024-01-30T18:24:14;15.77;;;8.55;;
38007;SDS011;75335;50.812;12.376;2024-01-30T18:26:42;15.55;;;9.00;;
38007;SDS011;75335;50.812;12.376;2024-01-30T18:29:11;14.45;;;8.05;;
38007;SDS011;75335;50.812;12.376;2024-01-30T18:31:39;16.58;;;8.82;;
38007;SDS011;75335;50.812;12.376;2024-01-30T18:34:08;14.82;;;8.63;;
38007;SDS011;75335;50.812;12.376;2024-01-30T18:36:36;17.08;;;9.20;;
38007;SDS011;75335;50.812;12.376;2024-01-30T18:39:06;18.75;;;8.40;;
38007;SDS011;75335;50.812;12.376;2024-01-30T18:41:35;20.00;;;9.55;;
38007;SDS011;75335;50.812;12.376;2024-01-30T18:44:03;14.63;;;8.75;;
38007;SDS011;75335;50.812;12.376;2024-01-30T18:46:33;20.30;;;7.90;;
38007;SDS011;75335;50.812;12.376;2024-01-30T18:49:01;17.70;;;9.30;;
38007;SDS011;75335;50.812;12.376;2024-01-30T18:51:29;15.55;;;9.32;;
38007;SDS011;75335;50.812;12.376;2024-01-30T18:53:59;17.55;;;9.23;;
38007;SDS011;75335;50.812;12.376;2024-01-30T18:56:27;15.77;;;8.73;;
38007;SDS011;75335;50.812;12.376;2024-01-30T18:58:55;17.10;;;9.45;;
38007;SDS011;75335;50.812;12.376;2024-01-30T19:01:23;16.30;;;9.02;;
38007;SDS011;75335;50.812;12.376;2024-01-30T19:03:52;19.77;;;9.63;;
38007;SDS011;75335;50.812;12.376;2024-01-30T19:06:21;18.35;;;9.52;;
38007;SDS011;75335;50.812;12.376;2024-01-30T19:08:49;22.60;;;10.23;;
38007;SDS011;75335;50.812;12.376;2024-01-30T19:11:18;17.92;;;10.02;;
38007;SDS011;75335;50.812;12.376;2024-01-30T19:13:46;18.98;;;8.98;;
38007;SDS011;75335;50.812;12.376;2024-01-30T19:16:14;14.75;;;8.27;;
38007;SDS011;75335;50.812;12.376;2024-01-30T19:18:42;18.30;;;8.88;;
38007;SDS011;75335;50.812;12.376;2024-01-30T19:21:12;16.77;;;9.32;;
38007;SDS011;75335;50.812;12.376;2024-01-30T19:23:40;18.90;;;9.05;;
38007;SDS011;75335;50.812;12.376;2024-01-30T19:26:08;19.13;;;9.32;;
38007;SDS011;75335;50.812;12.376;2024-01-30T19:28:36;13.93;;;8.60;;
38007;SDS011;75335;50.812;12.376;2024-01-30T19:31:05;17.70;;;10.02;;
38007;SDS011;75335;50.812;12.376;2024-01-30T19:33:33;21.83;;;8.98;;
38007;SDS011;75335;50.812;12.376;2024-01-30T19:36:02;16.33;;;8.90;;
38007;SDS011;75335;50.812;12.376;2024-01-30T19:38:32;16.33;;;9.38;;
38007;SDS011;75335;50.812;12.376;2024-01-30T19:41:00;16.30;;;9.52;;
38007;SDS011;75335;50.812;12.376;2024-01-30T19:43:28;15.48;;;8.68;;
38007;SDS011;75335;50.812;12.376;2024-01-30T19:45:56;19.73;;;10.45;;
38007;SDS011;75335;50.812;12.376;2024-01-30T19:48:24;17.23;;;9.68;;
38007;SDS011;75335;50.812;12.376;2024-01-30T19:50:52;18.95;;;10.55;;
38007;SDS011;75335;50.812;12.376;2024-01-30T19:53:20;21.13;;;9.93;;
38007;SDS011;75335;50.812;12.376;2024-01-30T19:55:50;17.70;;;10.20;;
38007;SDS011;75335;50.812;12.376;2024-01-30T19:58:17;17.42;;;9.85;;
38007;SDS011;75335;50.812;12.376;2024-01-30T20:00:46;20.27;;;9.65;;
38007;SDS011;75335;50.812;12.376;2024-01-30T20:03:15;18.15;;;9.07;;
38007;SDS011;75335;50.812;12.376;2024-01-30T20:05:43;21.08;;;9.02;;
38007;SDS011;75335;50.812;12.376;2024-01-30T20:08:11;18.98;;;9.75;;
38007;SDS011;75335;50.812;12.376;2024-01-30T20:10:40;19.40;;;9.90;;
38007;SDS011;75335;50.812;12.376;2024-01-30T20:13:12;21.65;;;9.63;;
38007;SDS011;75335;50.812;12.376;2024-01-30T20:15:40;17.33;;;10.02;;
38007;SDS011;75335;50.812;12.376;2024-01-30T20:18:08;17.88;;;10.23;;
38007;SDS011;75335;50.812;12.376;2024-01-30T20:20:36;16.05;;;9.38;;
38007;SDS011;75335;50.812;12.376;2024-01-30T20:23:05;17.30;;;9.32;;
38007;SDS011;75335;50.812;12.376;2024-01-30T20:25:33;21.27;;;10.40;;
38007;SDS011;75335;50.812;12.376;2024-01-30T20:28:02;15.82;;;9.75;;
38007;SDS011;75335;50.812;12.376;2024-01-30T20:30:32;19.30;;;8.95;;
38007;SDS011;75335;50.812;12.376;2024-01-30T20:33:01;21.33;;;10.63;;
38007;SDS011;75335;50.812;12.376;2024-01-30T20:35:28;23.48;;;10.60;;
38007;SDS011;75335;50.812;12.376;2024-01-30T20:37:56;19.10;;;10.50;;
38007;SDS011;75335;50.812;12.376;2024-01-30T20:40:24;19.63;;;9.52;;
38007;SDS011;75335;50.812;12.376;2024-01-30T20:42:52;17.50;;;9.93;;
38007;SDS011;75335;50.812;12.376;2024-01-30T20:45:20;17.80;;;10.18;;
38007;SDS011;75335;50.812;12.376;2024-01-30T20:47:49;22.02;;;11.20;;
38007;SDS011;75335;50.812;12.376;2024-01-30T20:50:17;19.75;;;10.93;;
38007;SDS011;75335;50.812;12.376;2024-01-30T20:52:45;22.35;;;9.85;;
38007;SDS011;75335;50.812;12.376;2024-01-30T20:55:13;17.30;;;10.63;;
38007;SDS011;75335;50.812;12.376;2024-01-30T20:57:41;20.23;;;10.43;;
38007;SDS011;75335;50.812;12.376;2024-01-30T21:00:09;20.13;;;10.55;;
38007;SDS011;75335;50.812;12.376;2024-01-30T21:02:38;21.58;;;10.48;;
38007;SDS011;75335;50.812;12.376;2024-01-30T21:05:09;20.67;;;10.73;;
38007;SDS011;75335;50.812;12.376;2024-01-30T21:07:38;18.73;;;10.40;;
38007;SDS011;75335;50.812;12.376;2024-01-30T21:10:10;19.38;;;10.93;;
38007;SDS011;75335;50.812;12.376;2024-01-30T21:12:39;22.58;;;10.30;;
38007;SDS011;75335;50.812;12.376;2024-01-30T21:15:07;19.35;;;11.60;;
38007;SDS011;75335;50.812;12.376;2024-01-30T21:17:37;20.30;;;11.70;;
38007;SDS011;75335;50.812;12.376;2024-01-30T21:20:05;20.40;;;10.88;;
38007;SDS011;75335;50.812;12.376;2024-01-30T21:22:37;19.67;;;11.38;;
38007;SDS011;75335;50.812;12.376;2024-01-30T21:25:05;16.48;;;10.15;;
38007;SDS011;75335;50.812;12.376;2024-01-30T21:27:34;21.30;;;11.57;;
38007;SDS011;75335;50.812;12.376;2024-01-30T21:30:04;17.13;;;9.63;;
38007;SDS011;75335;50.812;12.376;2024-01-30T21:32:33;20.67;;;10.57;;
38007;SDS011;75335;50.812;12.376;2024-01-30T21:35:02;20.40;;;11.15;;
38007;SDS011;75335;50.812;12.376;2024-01-30T21:37:33;15.63;;;9.68;;
38007;SDS011;75335;50.812;12.376;2024-01-30T21:40:01;21.05;;;10.77;;
38007;SDS011;75335;50.812;12.376;2024-01-30T21:42:30;23.45;;;13.18;;
38007;SDS011;75335;50.812;12.376;2024-01-30T21:44:57;18.92;;;11.48;;
38007;SDS011;75335;50.812;12.376;2024-01-30T21:47:26;28.23;;;11.02;;
38007;SDS011;75335;50.812;12.376;2024-01-30T21:49:54;18.35;;;10.40;;
38007;SDS011;75335;50.812;12.376;2024-01-30T21:52:22;16.98;;;9.82;;
38007;SDS011;75335;50.812;12.376;2024-01-30T21:54:51;22.27;;;11.73;;
38007;SDS011;75335;50.812;12.376;2024-01-30T22:01:19;22.17;;;12.13;;
38007;SDS011;75335;50.812;12.376;2024-01-30T22:03:47;22.05;;;11.32;;
38007;SDS011;75335;50.812;12.376;2024-01-30T22:06:16;23.02;;;11.35;;
38007;SDS011;75335;50.812;12.376;2024-01-30T22:08:45;21.23;;;11.38;;
38007;SDS011;75335;50.812;12.376;2024-01-30T22:11:15;16.98;;;11.02;;
38007;SDS011;75335;50.812;12.376;2024-01-30T22:13:43;20.45;;;11.93;;
38007;SDS011;75335;50.812;12.376;2024-01-30T22:16:12;21.35;;;11.60;;
38007;SDS011;75335;50.812;12.376;2024-01-30T22:18:40;21.83;;;11.55;;
38007;SDS011;75335;50.812;12.376;2024-01-30T22:21:08;21.75;;;10.82;;
38007;SDS011;75335;50.812;12.376;2024-01-30T22:23:40;22.70;;;11.82;;
38007;SDS011;75335;50.812;12.376;2024-01-30T22:26:09;18.80;;;10.93;;
38007;SDS011;75335;50.812;12.376;2024-01-30T22:28:38;19.92;;;10.30;;
38007;SDS011;75335;50.812;12.376;2024-01-30T22:31:06;18.38;;;10.82;;
38007;SDS011;75335;50.812;12.376;2024-01-30T22:33:34;24.92;;;10.73;;
38007;SDS011;75335;50.812;12.376;2024-01-30T22:36:04;20.02;;;10.73;;
38007;SDS011;75335;50.812;12.376;2024-01-30T22:38:32;20.55;;;11.43;;
38007;SDS011;75335;50.812;12.376;2024-01-30T22:40:59;19.27;;;11.23;;
38007;SDS011;75335;50.812;12.376;2024-01-30T22:43:28;19.02;;;10.90;;
38007;SDS011;75335;50.812;12.376;2024-01-30T22:46:01;22.92;;;12.75;;
38007;SDS011;75335;50.812;12.376;2024-01-30T22:48:29;19.10;;;10.45;;
38007;SDS011;75335;50.812;12.376;2024-01-30T22:50:57;23.63;;;11.27;;
38007;SDS011;75335;50.812;12.376;2024-01-30T22:53:25;17.75;;;10.52;;
38007;SDS011;75335;50.812;12.376;2024-01-30T22:55:53;17.95;;;10.95;;
38007;SDS011;75335;50.812;12.376;2024-01-30T22:58:22;19.95;;;11.25;;
38007;SDS011;75335;50.812;12.376;2024-01-30T23:00:50;19.45;;;10.38;;
38007;SDS011;75335;50.812;12.376;2024-01-30T23:03:20;23.55;;;12.73;;
38007;SDS011;75335;50.812;12.376;2024-01-30T23:05:49;22.75;;;11.88;;
38007;SDS011;75335;50.812;12.376;2024-01-30T23:08:18;21.42;;;10.77;;
38007;SDS011;75335;50.812;12.376;2024-01-30T23:10:47;18.55;;;10.70;;
38007;SDS011;75335;50.812;12.376;2024-01-30T23:13:15;28.50;;;12.68;;
38007;SDS011;75335;50.812;12.376;2024-01-30T23:15:42;22.17;;;11.55;;
38007;SDS011;75335;50.812;12.376;2024-01-30T23:18:11;24.00;;;11.75;;
38007;SDS011;75335;50.812;12.376;2024-01-30T23:20:42;17.70;;;10.98;;
38007;SDS011;75335;50.812;12.376;2024-01-30T23:23:10;18.40;;;11.25;;
38007;SDS011;75335;50.812;12.376;2024-01-30T23:25:38;25.30;;;11.48;;
38007;SDS011;75335;50.812;12.376;2024-01-30T23:28:06;22.63;;;11.57;;
38007;SDS011;75335;50.812;12.376;2024-01-30T23:30:35;22.50;;;11.35;;
38007;SDS011;75335;50.812;12.376;2024-01-30T23:33:03;22.77;;;11.57;;
38007;SDS011;75335;50.812;12.376;2024-01-30T23:35:31;22.13;;;12.68;;
38007;SDS011;75335;50.812;12.376;2024-01-30T23:38:01;19.88;;;11.07;;
38007;SDS011;75335;50.812;12.376;2024-01-30T23:40:29;19.90;;;11.43;;
38007;SDS011;75335;50.812;12.376;2024-01-30T23:42:57;22.67;;;11.48;;
38007;SDS011;75335;50.812;12.376;2024-01-30T23:45:25;22.77;;;11.85;;
38007;SDS011;75335;50.812;12.376;2024-01-30T23:47:53;21.30;;;11.57;;
38007;SDS011;75335;50.812;12.376;2024-01-30T23:50:21;20.92;;;12.40;;
38007;SDS011;75335;50.812;12.376;2024-01-30T23:52:49;19.85;;;11.70;;
38007;SDS011;75335;50.812;12.376;2024-01-30T23:55:26;19.00;;;11.20;;
38007;SDS011;75335;50.812;12.376;2024-01-30T23:57:54;21.77;;;11.45;;
